Time;durP1;ratioP1;P1;durP2;ratioP2;P2;SDS_P1;SDS_P2;PMS_P1;PMS_P2;Temp;Humidity;BMP_temperature;BMP_pressure;BME280_temperature;BME280_humidity;BME280_pressure;Samples;Min_cycle;Max_cycle;Signal;HPM_P1;HPM_P2
2021/12/26 00:01:10;;;;;;;9.52;5.63;;;2.40;99.90;;;;;;5002833;28;19929;-84
2021/12/26 00:03:37;;;;;;;10.45;5.43;;;2.40;99.90;;;;;;5006536;28;20037;-84
2021/12/26 00:06:07;;;;;;;9.27;5.15;;;2.40;99.90;;;;;;5012922;28;20048;-85
2021/12/26 00:08:36;;;;;;;7.63;5.20;;;2.30;99.90;;;;;;5013103;28;20504;-84
2021/12/26 00:11:03;;;;;;;8.50;5.07;;;2.40;99.90;;;;;;5027866;28;20689;-84
2021/12/26 00:13:30;;;;;;;8.40;5.28;;;2.40;99.90;;;;;;5028979;28;20431;-84
2021/12/26 00:15:56;;;;;;;8.23;5.07;;;2.40;99.90;;;;;;5010232;28;20049;-84
2021/12/26 00:18:22;;;;;;;9.55;5.78;;;2.40;99.90;;;;;;5015595;28;20044;-84
2021/12/26 00:20:48;;;;;;;8.52;5.43;;;2.40;99.90;;;;;;5033785;28;20029;-84
2021/12/26 00:23:14;;;;;;;8.75;5.47;;;2.40;99.90;;;;;;5031937;28;21606;-84
2021/12/26 00:25:40;;;;;;;11.18;5.28;;;2.40;99.90;;;;;;5030590;28;20087;-84
2021/12/26 00:28:06;;;;;;;8.32;4.82;;;2.40;99.90;;;;;;5011783;28;20071;-84
2021/12/26 00:30:32;;;;;;;9.07;5.40;;;2.40;99.90;;;;;;5033676;28;20021;-84
2021/12/26 00:32:58;;;;;;;10.30;5.57;;;2.40;99.90;;;;;;5015674;28;20043;-84
2021/12/26 00:35:25;;;;;;;9.93;5.82;;;2.50;99.90;;;;;;5017674;28;20505;-84
2021/12/26 00:37:51;;;;;;;8.95;5.10;;;2.40;99.90;;;;;;5032718;28;20033;-84
2021/12/26 00:40:19;;;;;;;8.65;5.20;;;2.50;99.90;;;;;;5032706;28;20127;-84
2021/12/26 00:42:46;;;;;;;9.38;5.45;;;2.50;99.90;;;;;;5031861;28;20651;-84
2021/12/26 00:45:13;;;;;;;10.88;5.55;;;2.50;99.90;;;;;;5012927;28;20048;-85
2021/12/26 00:47:39;;;;;;;8.98;5.25;;;2.50;99.90;;;;;;5011478;28;20032;-84
2021/12/26 00:50:08;;;;;;;8.20;5.82;;;2.40;99.90;;;;;;5033895;28;20047;-84
2021/12/26 00:52:34;;;;;;;9.25;5.85;;;2.50;99.90;;;;;;5022028;28;20398;-84
2021/12/26 00:55:00;;;;;;;8.82;5.97;;;2.50;99.90;;;;;;5007366;28;20037;-84
2021/12/26 00:57:26;;;;;;;10.80;6.30;;;2.50;99.90;;;;;;5012075;28;20402;-84
2021/12/26 00:59:51;;;;;;;11.63;5.75;;;2.40;99.90;;;;;;5021990;28;20057;-84
2021/12/26 01:02:17;;;;;;;10.40;5.72;;;2.50;99.90;;;;;;5025806;28;20127;-84
2021/12/26 01:04:43;;;;;;;10.27;5.85;;;2.50;99.90;;;;;;5008559;28;20118;-84
2021/12/26 01:07:22;;;;;;;10.27;6.15;;;2.50;99.90;;;;;;5024050;28;20029;-85
2021/12/26 01:09:51;;;;;;;7.57;4.68;;;2.50;99.90;;;;;;5017036;28;20462;-84
2021/12/26 01:12:18;;;;;;;10.25;5.75;;;2.50;99.90;;;;;;5012879;28;20040;-84
2021/12/26 01:14:49;;;;;;;11.20;5.32;;;2.50;99.90;;;;;;5028118;28;20041;-84
2021/12/26 01:17:19;;;;;;;10.25;5.85;;;2.50;99.90;;;;;;5013106;28;20036;-84
2021/12/26 01:19:49;;;;;;;11.07;5.88;;;2.50;99.90;;;;;;5019036;28;20048;-85
2021/12/26 01:22:16;;;;;;;11.07;6.25;;;2.50;99.90;;;;;;5012112;28;20033;-84
2021/12/26 01:24:46;;;;;;;10.38;6.25;;;2.50;99.90;;;;;;5009524;28;20222;-84
2021/12/26 01:27:12;;;;;;;11.07;5.78;;;2.40;99.90;;;;;;5031459;28;20021;-84
2021/12/26 01:29:38;;;;;;;9.50;5.55;;;2.40;99.90;;;;;;5009898;28;20087;-84
2021/12/26 01:32:05;;;;;;;9.70;5.55;;;2.40;99.90;;;;;;5009634;28;20510;-85
2021/12/26 01:34:32;;;;;;;12.85;6.60;;;2.40;99.90;;;;;;5026509;28;20064;-85
2021/12/26 01:36:57;;;;;;;11.35;6.45;;;2.40;99.90;;;;;;5030553;28;20028;-84
2021/12/26 01:39:24;;;;;;;11.65;6.60;;;2.40;99.90;;;;;;5020326;28;20043;-85
2021/12/26 01:41:50;;;;;;;13.95;6.57;;;2.40;99.90;;;;;;5010285;28;20037;-84
2021/12/26 01:44:16;;;;;;;11.50;6.60;;;2.40;99.90;;;;;;5009125;28;20044;-84
2021/12/26 01:46:44;;;;;;;11.40;6.35;;;2.40;99.90;;;;;;5030029;28;20021;-84
2021/12/26 01:49:17;;;;;;;11.10;6.50;;;2.40;99.90;;;;;;5027765;28;20025;-83
2021/12/26 01:51:45;;;;;;;10.65;6.50;;;2.40;99.90;;;;;;5010551;28;20078;-84
2021/12/26 01:54:13;;;;;;;12.27;6.38;;;2.40;99.90;;;;;;5012746;28;20040;-84
2021/12/26 01:56:41;;;;;;;12.52;6.25;;;2.40;99.90;;;;;;5025292;28;20029;-84
2021/12/26 01:59:11;;;;;;;10.13;5.55;;;2.40;99.90;;;;;;5029067;28;20041;-84
2021/12/26 02:01:37;;;;;;;9.07;5.45;;;2.40;99.90;;;;;;5024358;28;21722;-84
2021/12/26 02:04:05;;;;;;;12.02;6.60;;;2.40;99.90;;;;;;5022640;28;20021;-84
2021/12/26 02:06:32;;;;;;;12.98;6.57;;;2.40;99.90;;;;;;5016366;28;20028;-84
2021/12/26 02:08:58;;;;;;;14.23;6.45;;;2.40;99.90;;;;;;5001973;28;21637;-85
2021/12/26 02:11:23;;;;;;;11.20;6.47;;;2.40;99.90;;;;;;5002088;28;20044;-84
2021/12/26 02:13:49;;;;;;;10.27;5.47;;;2.40;99.90;;;;;;5018994;28;20486;-84
2021/12/26 02:16:15;;;;;;;13.27;7.07;;;2.40;99.90;;;;;;5003265;28;20076;-85
2021/12/26 02:18:41;;;;;;;14.23;6.95;;;2.40;99.90;;;;;;5011529;28;20033;-85
2021/12/26 02:23:55;;;;;;;12.00;6.03;;;2.40;99.90;;;;;;5030929;28;20030;-84
2021/12/26 02:29:05;;;;;;;13.52;5.80;;;2.40;99.90;;;;;;5025668;28;20029;-84
2021/12/26 02:31:31;;;;;;;9.20;5.00;;;2.50;99.90;;;;;;5021932;28;20046;-85
2021/12/26 02:33:56;;;;;;;11.00;6.78;;;2.50;99.90;;;;;;5006496;28;20045;-85
2021/12/26 02:36:22;;;;;;;8.20;4.97;;;2.50;99.90;;;;;;5000156;28;20029;-85
2021/12/26 02:38:48;;;;;;;10.75;5.45;;;2.60;99.90;;;;;;5000170;28;20716;-84
2021/12/26 02:41:14;;;;;;;9.80;5.90;;;2.50;99.90;;;;;;5004754;28;22332;-84
2021/12/26 02:43:39;;;;;;;12.70;5.18;;;2.60;99.90;;;;;;5007100;28;20144;-85
2021/12/26 02:46:07;;;;;;;11.05;6.35;;;2.60;99.90;;;;;;5007122;28;20024;-85
2021/12/26 02:48:34;;;;;;;11.30;6.03;;;2.60;99.90;;;;;;5024077;28;20029;-85
2021/12/26 02:51:01;;;;;;;10.13;6.40;;;2.60;99.90;;;;;;5005860;28;20092;-85
2021/12/26 02:53:27;;;;;;;9.85;5.80;;;2.60;99.90;;;;;;5025548;28;20024;-85
2021/12/26 02:55:55;;;;;;;12.27;6.10;;;2.60;99.90;;;;;;5027294;28;20021;-84
2021/12/26 02:58:21;;;;;;;12.80;6.47;;;2.60;99.90;;;;;;5011027;28;20036;-85
2021/12/26 03:00:52;;;;;;;11.80;5.82;;;2.60;99.90;;;;;;5019560;28;20332;-84
2021/12/26 03:03:18;;;;;;;10.07;5.28;;;2.60;99.90;;;;;;4998802;28;20071;-84
2021/12/26 03:05:46;;;;;;;12.13;6.32;;;2.60;99.90;;;;;;5018191;28;20033;-84
2021/12/26 03:08:16;;;;;;;7.78;5.50;;;2.60;99.90;;;;;;5016600;28;20100;-84
2021/12/26 03:10:42;;;;;;;9.73;5.65;;;2.60;99.90;;;;;;5000216;28;20473;-84
2021/12/26 03:13:11;;;;;;;11.15;6.22;;;2.60;99.90;;;;;;4999772;28;20037;-84
2021/12/26 03:15:38;;;;;;;11.48;5.65;;;2.60;99.90;;;;;;5016895;28;20597;-84
2021/12/26 03:18:05;;;;;;;13.45;6.85;;;2.60;99.90;;;;;;5020675;28;20064;-84
2021/12/26 03:20:37;;;;;;;14.20;5.82;;;2.60;99.90;;;;;;4997156;28;20490;-84
2021/12/26 03:23:04;;;;;;;11.52;6.22;;;2.60;99.90;;;;;;5022096;28;20037;-84
2021/12/26 03:25:32;;;;;;;11.27;6.10;;;2.60;99.90;;;;;;5020754;28;20504;-84
2021/12/26 03:27:57;;;;;;;12.17;6.90;;;2.60;99.90;;;;;;4998750;28;20120;-84
2021/12/26 03:30:26;;;;;;;10.32;6.15;;;2.70;99.90;;;;;;4999965;28;20118;-84
2021/12/26 03:32:53;;;;;;;10.20;5.10;;;2.60;99.90;;;;;;5016652;28;20514;-84
2021/12/26 03:35:21;;;;;;;9.13;6.07;;;2.70;99.90;;;;;;5004844;28;20041;-85
2021/12/26 03:37:47;;;;;;;11.23;5.38;;;2.70;99.90;;;;;;5021361;28;20120;-84
2021/12/26 03:40:13;;;;;;;9.93;5.85;;;2.70;99.90;;;;;;5006252;28;20040;-84
2021/12/26 03:42:39;;;;;;;13.88;6.50;;;2.70;99.90;;;;;;5024041;28;20032;-84
2021/12/26 03:45:08;;;;;;;9.07;5.35;;;2.70;99.90;;;;;;5004988;28;20037;-84
2021/12/26 03:47:34;;;;;;;;;;;2.60;99.90;;;;;;5005233;28;20078;-84
2021/12/26 03:50:01;;;;;;;9.38;5.50;;;2.60;99.90;;;;;;5023094;28;19917;-84
2021/12/26 03:52:26;;;;;;;11.00;5.80;;;2.60;99.90;;;;;;5006057;28;20137;-84
2021/12/26 03:54:53;;;;;;;11.50;5.88;;;2.60;99.90;;;;;;5004050;28;20387;-84
2021/12/26 03:57:19;;;;;;;11.48;5.65;;;2.60;99.90;;;;;;5021072;28;20848;-84
2021/12/26 03:59:45;;;;;;;11.20;6.85;;;2.70;99.90;;;;;;5015418;28;20077;-85
2021/12/26 04:02:11;;;;;;;12.75;6.45;;;2.70;99.90;;;;;;5001803;28;20098;-85
2021/12/26 04:04:37;;;;;;;9.77;5.32;;;2.70;99.90;;;;;;5005916;28;20567;-84
2021/12/26 04:07:03;;;;;;;12.73;5.50;;;2.70;99.90;;;;;;5007204;28;20033;-85
2021/12/26 04:09:29;;;;;;;12.65;6.30;;;2.70;99.90;;;;;;5023875;28;20029;-85
2021/12/26 04:11:54;;;;;;;9.48;5.03;;;2.70;99.90;;;;;;5021909;28;20444;-84
2021/12/26 04:14:20;;;;;;;12.70;6.35;;;2.70;99.90;;;;;;5005633;28;20037;-84
2021/12/26 04:16:46;;;;;;;11.60;5.72;;;2.70;99.90;;;;;;5006475;28;20034;-84
2021/12/26 04:19:12;;;;;;;11.20;6.18;;;2.70;99.90;;;;;;5019410;28;20044;-84
2021/12/26 04:21:38;;;;;;;9.80;5.82;;;2.80;99.90;;;;;;5020485;28;20200;-85
2021/12/26 04:24:04;;;;;;;12.38;5.88;;;2.80;99.90;;;;;;5008687;28;20033;-84
2021/12/26 04:26:30;;;;;;;15.10;7.10;;;2.70;99.90;;;;;;5021590;28;20083;-84
2021/12/26 04:28:56;;;;;;;11.95;6.45;;;2.80;99.90;;;;;;5006377;28;21315;-83
2021/12/26 04:31:22;;;;;;;12.10;6.38;;;2.70;99.90;;;;;;5021442;28;20033;-84
2021/12/26 04:33:47;;;;;;;11.90;6.15;;;2.80;99.90;;;;;;5003872;28;20021;-84
2021/12/26 04:36:14;;;;;;;14.13;7.45;;;2.80;99.90;;;;;;5003925;28;20038;-84
2021/12/26 04:38:40;;;;;;;11.48;6.45;;;2.80;99.90;;;;;;5001551;28;20134;-84
2021/12/26 04:41:06;;;;;;;13.05;6.82;;;2.80;99.90;;;;;;5021537;28;20063;-84
2021/12/26 04:43:35;;;;;;;13.73;7.03;;;2.80;99.90;;;;;;5004793;28;20643;-84
2021/12/26 04:46:03;;;;;;;;;;;2.80;99.90;;;;;;5007691;28;20462;-84
2021/12/26 04:48:28;;;;;;;14.57;6.60;;;2.80;99.90;;;;;;5026708;28;19963;-84
2021/12/26 04:50:54;;;;;;;13.18;6.55;;;2.70;99.90;;;;;;5029952;28;20127;-84
2021/12/26 04:53:20;;;;;;;18.55;7.45;;;2.70;99.90;;;;;;5027863;28;21527;-84
2021/12/26 04:55:46;;;;;;;12.25;5.68;;;2.70;99.90;;;;;;5027949;28;20045;-84
2021/12/26 04:58:12;;;;;;;13.57;7.88;;;2.70;99.90;;;;;;5024251;28;20025;-84
2021/12/26 05:00:37;;;;;;;16.25;6.68;;;2.70;99.90;;;;;;5023129;28;20050;-84
2021/12/26 05:03:04;;;;;;;14.50;7.20;;;2.80;99.90;;;;;;5009719;28;20026;-84
2021/12/26 05:05:31;;;;;;;14.85;7.50;;;2.70;99.90;;;;;;5007065;28;20079;-85
2021/12/26 05:07:57;;;;;;;11.15;6.47;;;2.80;99.90;;;;;;5007182;28;20031;-85
2021/12/26 05:10:28;;;;;;;15.57;7.07;;;2.70;99.90;;;;;;5023255;28;20390;-85
2021/12/26 05:12:56;;;;;;;11.80;6.53;;;2.80;99.90;;;;;;5025771;28;20023;-85
2021/12/26 05:15:22;;;;;;;12.30;6.50;;;2.80;99.90;;;;;;5022492;28;20021;-85
2021/12/26 05:17:49;;;;;;;14.80;8.18;;;2.80;99.90;;;;;;5006051;28;20594;-85
2021/12/26 05:20:18;;;;;;;15.77;7.55;;;2.80;99.90;;;;;;5009206;28;20049;-85
2021/12/26 05:22:44;;;;;;;;;;;2.80;99.90;;;;;;5024132;28;20473;-85
2021/12/26 05:25:10;;;;;;;16.23;7.28;;;2.80;99.90;;;;;;5024506;28;19916;-85
2021/12/26 05:27:36;;;;;;;13.60;6.88;;;2.80;99.90;;;;;;5007597;28;20060;-85
2021/12/26 05:30:04;;;;;;;11.15;6.25;;;2.80;99.90;;;;;;5003945;28;20466;-85
2021/12/26 05:32:30;;;;;;;16.80;7.72;;;2.80;99.90;;;;;;5004607;28;20103;-85
2021/12/26 05:34:56;;;;;;;15.13;7.43;;;2.80;99.90;;;;;;5025992;28;20037;-85
2021/12/26 05:37:21;;;;;;;14.85;7.90;;;2.90;99.90;;;;;;5006848;28;20033;-84
2021/12/26 05:39:47;;;;;;;13.52;7.07;;;2.80;99.90;;;;;;5009329;28;20060;-84
2021/12/26 05:42:16;;;;;;;18.63;8.23;;;2.80;99.90;;;;;;5011246;28;20033;-85
2021/12/26 05:44:46;;;;;;;;;;;2.80;99.90;;;;;;5009965;28;20030;-86
2021/12/26 05:47:12;;;;;;;12.60;8.07;;;2.80;99.90;;;;;;5007325;28;20309;-85
2021/12/26 05:49:38;;;;;;;13.45;7.10;;;2.90;99.90;;;;;;5023725;28;20041;-84
2021/12/26 05:52:05;;;;;;;11.70;6.40;;;2.80;99.90;;;;;;5011483;28;20084;-84
2021/12/26 05:54:31;;;;;;;13.63;7.55;;;2.80;99.90;;;;;;5008607;28;20056;-84
2021/12/26 05:56:56;;;;;;;14.48;7.32;;;2.80;99.90;;;;;;5024669;28;20135;-84
2021/12/26 05:59:22;;;;;;;15.90;7.32;;;2.80;99.90;;;;;;5025935;28;20053;-84
2021/12/26 06:01:48;;;;;;;17.02;7.70;;;2.80;99.90;;;;;;5022810;28;20088;-84
2021/12/26 06:04:13;;;;;;;12.60;6.53;;;2.80;99.90;;;;;;5006534;28;20021;-83
2021/12/26 06:06:39;;;;;;;13.07;6.57;;;2.80;99.90;;;;;;5025193;28;20501;-84
2021/12/26 06:09:05;;;;;;;12.93;7.35;;;2.80;99.90;;;;;;5007595;28;20828;-85
2021/12/26 06:11:32;;;;;;;15.10;7.88;;;2.80;99.90;;;;;;5027445;28;20037;-85
2021/12/26 06:13:58;;;;;;;13.82;7.10;;;2.70;99.90;;;;;;5025531;28;20025;-85
2021/12/26 06:16:23;;;;;;;12.70;7.13;;;2.80;99.90;;;;;;5013044;28;20037;-85
2021/12/26 06:18:49;;;;;;;15.45;7.53;;;2.80;99.90;;;;;;5009903;28;20072;-85
2021/12/26 06:21:15;;;;;;;16.23;7.90;;;2.80;99.90;;;;;;5005750;28;20029;-85
2021/12/26 06:23:40;;;;;;;15.57;8.38;;;2.80;99.90;;;;;;5016952;28;20057;-85
2021/12/26 06:26:06;;;;;;;13.20;7.43;;;2.80;99.90;;;;;;5025356;28;20034;-85
2021/12/26 06:28:32;;;;;;;13.77;7.43;;;2.80;99.90;;;;;;5006845;28;20029;-84
2021/12/26 06:30:57;;;;;;;12.75;8.15;;;2.80;99.90;;;;;;5006960;28;20490;-85
2021/12/26 06:33:23;;;;;;;14.80;7.85;;;2.80;99.90;;;;;;5006662;28;20033;-85
2021/12/26 06:35:51;;;;;;;15.98;7.13;;;2.90;99.90;;;;;;5004232;28;20087;-85
2021/12/26 06:38:17;;;;;;;13.93;7.93;;;2.90;99.90;;;;;;5023716;28;20033;-85
2021/12/26 06:40:42;;;;;;;14.60;7.97;;;2.90;99.90;;;;;;5024166;28;20033;-86
2021/12/26 06:43:08;;;;;;;15.15;9.13;;;2.90;99.90;;;;;;5005330;28;20041;-85
2021/12/26 06:45:34;;;;;;;13.02;7.82;;;3.00;99.90;;;;;;5009874;28;20309;-85
2021/12/26 06:48:02;;;;;;;25.02;13.05;;;2.90;99.90;;;;;;5004718;28;20021;-85
2021/12/26 06:50:28;;;;;;;12.30;7.03;;;2.90;99.90;;;;;;5008663;28;20609;-85
2021/12/26 06:52:54;;;;;;;11.15;6.25;;;2.90;99.90;;;;;;5008605;28;20025;-85
2021/12/26 06:55:20;;;;;;;11.38;6.53;;;3.00;99.90;;;;;;5022855;28;20107;-85
2021/12/26 06:57:46;;;;;;;13.05;7.28;;;3.00;99.90;;;;;;5024826;28;20108;-85
2021/12/26 07:00:15;;;;;;;15.05;6.80;;;3.00;99.90;;;;;;5005600;28;20045;-85
2021/12/26 07:02:41;;;;;;;11.48;6.32;;;3.00;99.90;;;;;;5019472;28;20045;-85
2021/12/26 07:05:07;;;;;;;11.35;6.35;;;3.00;99.90;;;;;;5006317;28;20060;-85
2021/12/26 07:07:33;;;;;;;12.23;6.63;;;2.90;99.90;;;;;;5020884;28;21166;-85
2021/12/26 07:09:59;;;;;;;11.40;6.60;;;2.90;99.90;;;;;;5006316;28;20032;-85
2021/12/26 07:12:25;;;;;;;14.02;7.28;;;2.90;99.90;;;;;;5022657;28;20025;-85
2021/12/26 07:14:51;;;;;;;12.55;7.00;;;2.90;99.90;;;;;;5025475;28;20043;-85
2021/12/26 07:17:16;;;;;;;11.38;6.90;;;2.80;99.90;;;;;;5027969;28;20037;-85
2021/12/26 07:19:42;;;;;;;11.13;6.05;;;2.90;99.90;;;;;;5005406;28;20586;-85
2021/12/26 07:22:08;;;;;;;12.63;6.80;;;2.90;99.90;;;;;;5003025;28;20163;-85
2021/12/26 07:24:34;;;;;;;12.13;6.60;;;2.90;99.90;;;;;;5024107;28;20029;-85
2021/12/26 07:27:00;;;;;;;16.92;8.30;;;2.80;99.90;;;;;;5007204;28;20025;-85
2021/12/26 07:29:25;;;;;;;16.33;8.90;;;2.90;99.90;;;;;;5005585;28;20068;-85
2021/12/26 07:31:51;;;;;;;15.88;8.95;;;2.80;99.90;;;;;;5021655;28;20040;-85
2021/12/26 07:34:17;;;;;;;14.23;8.10;;;2.80;99.90;;;;;;4997982;28;20060;-85
2021/12/26 07:36:42;;;;;;;13.73;6.97;;;2.80;99.90;;;;;;5006901;28;20028;-85
2021/12/26 07:39:08;;;;;;;13.05;6.47;;;2.90;99.90;;;;;;5007544;28;20036;-85
2021/12/26 07:41:34;;;;;;;10.10;5.80;;;2.90;99.90;;;;;;5022883;28;20030;-85
2021/12/26 07:44:00;;;;;;;11.23;6.13;;;2.80;99.90;;;;;;5006085;28;20106;-85
2021/12/26 07:46:26;;;;;;;13.40;6.75;;;2.90;99.90;;;;;;5025020;28;20088;-84
2021/12/26 07:48:52;;;;;;;11.65;6.18;;;2.80;99.90;;;;;;5024695;28;20029;-84
2021/12/26 07:51:19;;;;;;;10.80;6.45;;;2.80;99.90;;;;;;5025703;28;20021;-85
2021/12/26 07:53:46;;;;;;;9.23;5.90;;;2.80;99.90;;;;;;5022300;28;20867;-85
2021/12/26 07:56:14;;;;;;;13.05;6.63;;;2.90;99.90;;;;;;5006754;28;20371;-85
2021/12/26 07:58:40;;;;;;;10.23;5.90;;;2.80;99.90;;;;;;5022336;28;20030;-85
2021/12/26 08:01:05;;;;;;;12.38;7.13;;;2.90;99.90;;;;;;5005786;28;20080;-84
2021/12/26 08:03:34;;;;;;;9.85;6.30;;;2.90;99.90;;;;;;5022301;28;20920;-85
2021/12/26 08:06:00;;;;;;;12.18;5.93;;;2.90;99.90;;;;;;5020702;28;20469;-84
2021/12/26 08:08:26;;;;;;;12.10;6.05;;;2.90;99.90;;;;;;5005653;28;20025;-85
2021/12/26 08:10:51;;;;;;;12.20;6.45;;;2.90;99.90;;;;;;5006681;28;20215;-85
2021/12/26 08:13:17;;;;;;;14.00;6.63;;;2.90;99.90;;;;;;5003746;28;20747;-85
2021/12/26 08:15:43;;;;;;;12.05;6.43;;;2.90;99.90;;;;;;5007072;28;20033;-84
2021/12/26 08:18:09;;;;;;;11.75;6.85;;;2.90;99.90;;;;;;5020005;28;20029;-85
2021/12/26 08:20:34;;;;;;;10.05;5.43;;;2.90;99.90;;;;;;5007929;28;20160;-85
2021/12/26 08:23:01;;;;;;;11.32;6.22;;;2.90;99.90;;;;;;5023958;28;20065;-85
2021/12/26 08:25:28;;;;;;;10.85;5.72;;;2.90;99.90;;;;;;5011927;28;20028;-84
2021/12/26 08:27:53;;;;;;;11.10;6.03;;;2.90;99.90;;;;;;5025847;28;20021;-85
2021/12/26 08:30:20;;;;;;;10.48;5.97;;;2.90;99.90;;;;;;5029228;28;20036;-85
2021/12/26 08:32:50;;;;;;;10.15;5.88;;;2.90;99.90;;;;;;5023730;28;20110;-85
2021/12/26 08:35:15;;;;;;;9.70;6.10;;;2.90;99.90;;;;;;5028743;28;20589;-85
2021/12/26 08:37:41;;;;;;;9.40;6.03;;;2.90;99.90;;;;;;5011348;28;20110;-85
2021/12/26 08:40:08;;;;;;;13.38;6.07;;;2.90;99.90;;;;;;5008208;28;20033;-84
2021/12/26 08:42:34;;;;;;;9.40;5.93;;;2.90;99.90;;;;;;5009823;28;20514;-84
2021/12/26 08:45:00;;;;;;;9.68;5.78;;;2.90;99.90;;;;;;5009420;28;20025;-85
2021/12/26 08:47:26;;;;;;;13.38;6.20;;;2.90;99.90;;;;;;5008344;28;20030;-83
2021/12/26 08:49:52;;;;;;;9.05;5.38;;;2.90;99.90;;;;;;5009810;28;20968;-85
2021/12/26 08:52:18;;;;;;;11.65;5.95;;;2.90;99.90;;;;;;5029676;28;20033;-85
2021/12/26 08:54:44;;;;;;;10.95;5.70;;;3.00;99.90;;;;;;5010109;28;20037;-84
2021/12/26 08:57:10;;;;;;;8.75;4.97;;;3.00;99.90;;;;;;5010939;28;20082;-84
2021/12/26 08:59:37;;;;;;;9.07;5.68;;;3.00;99.90;;;;;;5006717;28;20045;-84
2021/12/26 09:02:04;;;;;;;10.70;5.88;;;2.90;99.90;;;;;;5006357;28;20072;-85
2021/12/26 09:04:30;;;;;;;12.15;6.10;;;2.90;99.90;;;;;;5007818;28;20097;-85
2021/12/26 09:06:56;;;;;;;9.98;5.43;;;3.00;99.90;;;;;;5004720;28;20045;-84
2021/12/26 09:09:24;;;;;;;8.27;4.82;;;3.00;99.90;;;;;;5006770;28;20107;-85
2021/12/26 09:11:50;;;;;;;9.57;5.82;;;3.00;99.90;;;;;;5004698;28;20033;-84
2021/12/26 09:14:15;;;;;;;9.57;5.68;;;3.00;99.90;;;;;;5006520;28;20759;-86
2021/12/26 09:16:41;;;;;;;8.98;5.72;;;3.10;99.90;;;;;;5007286;28;20025;-85
2021/12/26 09:19:07;;;;;;;10.00;5.25;;;3.00;99.90;;;;;;5017879;28;20072;-85
2021/12/26 09:21:33;;;;;;;8.50;5.82;;;3.10;99.90;;;;;;5005579;28;20030;-85
2021/12/26 09:23:59;;;;;;;10.35;5.45;;;3.10;99.90;;;;;;5004630;28;20042;-85
2021/12/26 09:26:25;;;;;;;9.25;5.32;;;3.10;99.90;;;;;;5005719;28;20679;-84
2021/12/26 09:28:51;;;;;;;10.38;6.47;;;3.10;99.90;;;;;;5005047;28;20040;-84
2021/12/26 09:31:17;;;;;;;10.10;5.72;;;3.10;99.90;;;;;;5001819;28;20045;-84
2021/12/26 09:33:43;;;;;;;8.80;5.15;;;3.10;99.90;;;;;;5019945;28;20121;-84
2021/12/26 09:36:09;;;;;;;11.07;4.93;;;3.10;99.90;;;;;;5005550;28;20030;-85
2021/12/26 09:38:34;;;;;;;11.07;6.30;;;3.10;99.90;;;;;;5007022;28;20144;-85
2021/12/26 09:41:00;;;;;;;11.75;6.05;;;3.10;99.90;;;;;;5005675;28;20042;-85
2021/12/26 09:43:26;;;;;;;11.48;6.53;;;3.10;99.90;;;;;;5004987;28;20029;-84
2021/12/26 09:45:52;;;;;;;13.82;7.40;;;3.10;99.90;;;;;;5004035;28;20021;-85
2021/12/26 09:48:19;;;;;;;12.52;7.13;;;3.20;99.90;;;;;;5023055;28;20030;-84
2021/12/26 09:50:46;;;;;;;8.13;5.15;;;3.20;99.90;;;;;;5006510;28;20034;-84
2021/12/26 09:53:12;;;;;;;13.20;6.03;;;3.20;99.90;;;;;;5002552;28;20120;-85
2021/12/26 09:55:38;;;;;;;11.40;6.43;;;3.30;99.90;;;;;;5008735;28;20076;-85
2021/12/26 09:58:04;;;;;;;10.50;6.25;;;3.30;99.90;;;;;;5006705;28;20037;-84
2021/12/26 10:00:42;;;;;;;21.65;12.38;;;3.30;99.90;;;;;;5004139;28;20060;-85
2021/12/26 10:03:08;;;;;;;12.02;6.85;;;3.40;99.90;;;;;;5001726;28;20425;-85
2021/12/26 10:05:58;;;;;;;10.05;6.28;;;3.40;99.90;;;;;;5003367;28;20026;-85
2021/12/26 10:08:24;;;;;;;9.60;5.32;;;3.40;99.90;;;;;;5009619;28;20092;-84
2021/12/26 10:11:10;;;;;;;16.13;10.07;;;3.40;99.90;;;;;;5008018;28;20026;-85
2021/12/26 10:13:50;;;;;;;9.48;6.20;;;3.50;99.90;;;;;;5002919;28;20026;-85
2021/12/26 10:16:18;;;;;;;15.15;7.90;;;3.50;99.90;;;;;;5013477;28;20029;-84
2021/12/26 10:18:44;;;;;;;9.82;6.15;;;3.50;99.90;;;;;;5010256;28;20044;-84
2021/12/26 10:21:28;;;;;;;9.18;5.07;;;3.50;99.90;;;;;;5009355;28;20029;-85
2021/12/26 10:24:06;;;;;;;11.10;5.47;;;3.50;99.90;;;;;;5005197;28;20578;-84
2021/12/26 10:26:36;;;;;;;11.75;7.55;;;3.60;99.90;;;;;;5005453;28;20021;-85
2021/12/26 10:29:08;;;;;;;11.70;6.38;;;3.60;99.90;;;;;;5002718;28;20034;-85
2021/12/26 10:31:44;;;;;;;13.73;7.05;;;3.70;99.90;;;;;;5003322;28;20087;-85
2021/12/26 10:34:22;;;;;;;10.90;6.32;;;3.70;99.90;;;;;;5009220;28;20037;-85
2021/12/26 10:36:50;;;;;;;10.52;6.13;;;3.70;99.90;;;;;;5006425;28;20029;-85
2021/12/26 10:39:18;;;;;;;11.23;6.77;;;3.70;99.90;;;;;;5010052;28;20088;-85
2021/12/26 10:42:13;;;;;;;10.95;6.05;;;3.70;99.90;;;;;;5006972;28;20036;-85
2021/12/26 10:45:00;;;;;;;21.67;12.18;;;3.70;99.90;;;;;;5008327;28;20056;-85
2021/12/26 10:47:31;;;;;;;11.18;6.15;;;3.80;99.90;;;;;;5010153;28;20065;-85
2021/12/26 10:49:58;;;;;;;13.65;6.70;;;3.80;99.90;;;;;;5005838;28;20037;-85
2021/12/26 10:52:33;;;;;;;12.48;6.80;;;3.80;99.90;;;;;;5010568;28;20026;-85
2021/12/26 10:55:06;;;;;;;25.33;11.88;;;3.90;99.90;;;;;;5015728;28;20033;-85
2021/12/26 10:57:51;;;;;;;9.57;5.90;;;3.90;99.90;;;;;;5011817;28;20030;-85
2021/12/26 11:00:19;;;;;;;13.27;7.60;;;3.90;99.90;;;;;;5010627;28;20045;-85
2021/12/26 11:03:00;;;;;;;13.63;7.25;;;3.90;99.90;;;;;;5005064;28;20049;-85
2021/12/26 11:05:35;;;;;;;12.43;5.93;;;3.90;99.90;;;;;;5007088;28;20474;-85
2021/12/26 11:08:07;;;;;;;14.02;7.90;;;3.90;99.90;;;;;;5006804;28;20026;-85
2021/12/26 11:10:34;;;;;;;13.85;6.85;;;3.90;99.90;;;;;;5006425;28;20034;-85
2021/12/26 11:13:02;;;;;;;14.95;7.05;;;3.90;99.90;;;;;;5007099;28;20040;-85
2021/12/26 11:15:34;;;;;;;12.13;7.25;;;3.90;99.90;;;;;;5007595;28;20030;-85
2021/12/26 11:18:13;;;;;;;15.75;7.28;;;3.90;99.90;;;;;;5009244;28;20469;-85
2021/12/26 11:20:42;;;;;;;11.70;6.85;;;3.90;99.90;;;;;;5011597;28;20034;-84
2021/12/26 11:23:15;;;;;;;13.45;7.03;;;3.90;99.90;;;;;;5011490;28;20026;-85
2021/12/26 11:25:49;;;;;;;13.25;7.25;;;4.00;99.90;;;;;;5005280;28;20501;-85
2021/12/26 11:28:22;;;;;;;12.18;7.40;;;4.00;99.90;;;;;;5026463;28;20080;-85
2021/12/26 11:30:49;;;;;;;13.88;6.70;;;4.00;99.90;;;;;;5007004;28;20034;-85
2021/12/26 11:33:14;;;;;;;17.75;8.38;;;4.00;99.90;;;;;;5006225;28;20218;-84
2021/12/26 11:35:40;;;;;;;12.77;7.18;;;4.00;99.90;;;;;;5008791;28;20030;-84
2021/12/26 11:38:14;;;;;;;13.35;6.57;;;4.00;99.90;;;;;;5010422;28;20241;-83
2021/12/26 11:40:41;;;;;;;13.48;7.28;;;4.00;99.90;;;;;;5009829;28;20029;-84
2021/12/26 11:43:37;;;;;;;13.95;8.15;;;4.00;99.90;;;;;;5011365;28;20060;-84
2021/12/26 11:46:14;;;;;;;16.60;8.27;;;4.00;99.90;;;;;;5010958;28;20033;-84
2021/12/26 11:49:09;;;;;;;15.27;7.93;;;4.10;99.90;;;;;;5014011;28;20040;-84
2021/12/26 11:52:01;;;;;;;18.73;8.82;;;4.10;99.90;;;;;;5009353;28;21422;-84
2021/12/26 11:55:04;;;;;;;14.52;8.13;;;4.10;99.90;;;;;;5012585;28;20367;-84
2021/12/26 11:57:59;;;;;;;17.55;8.10;;;4.10;99.90;;;;;;5012696;28;20030;-84
2021/12/26 12:00:28;;;;;;;17.05;8.40;;;4.10;99.90;;;;;;5024979;28;20077;-84
2021/12/26 12:02:59;;;;;;;21.85;9.35;;;4.10;99.90;;;;;;5031918;28;20044;-84
2021/12/26 12:05:26;;;;;;;13.98;8.10;;;4.20;99.90;;;;;;5028577;28;20741;-84
2021/12/26 12:08:01;;;;;;;16.63;8.50;;;4.20;99.90;;;;;;5014843;28;21099;-84
2021/12/26 12:10:35;;;;;;;18.35;8.93;;;4.20;99.90;;;;;;5014546;28;20095;-84
2021/12/26 12:13:03;;;;;;;15.73;9.60;;;4.20;99.90;;;;;;5021026;28;20036;-84
2021/12/26 12:15:47;;;;;;;18.13;9.57;;;4.20;99.90;;;;;;5012796;28;20025;-84
2021/12/26 12:18:20;;;;;;;13.32;7.72;;;4.30;99.90;;;;;;5032955;28;20032;-84
2021/12/26 12:20:46;;;;;;;21.35;9.23;;;4.20;99.90;;;;;;5028697;28;20543;-84
2021/12/26 12:23:17;;;;;;;16.02;8.35;;;4.20;99.90;;;;;;5015285;28;20047;-84
2021/12/26 12:25:52;;;;;;;16.33;8.05;;;4.20;99.90;;;;;;5031049;28;20057;-84
2021/12/26 12:28:32;;;;;;;15.90;8.45;;;4.30;99.90;;;;;;5016750;28;20018;-83
2021/12/26 12:31:07;;;;;;;18.05;8.90;;;4.30;99.90;;;;;;5015005;28;20125;-84
2021/12/26 12:33:35;;;;;;;19.58;9.10;;;4.30;99.90;;;;;;5007608;28;20026;-84
2021/12/26 12:36:05;;;;;;;20.35;9.55;;;4.30;99.90;;;;;;5013450;28;20040;-85
2021/12/26 12:38:40;;;;;;;19.48;9.88;;;4.40;99.90;;;;;;5024907;28;20605;-83
2021/12/26 12:41:29;;;;;;;18.77;8.52;;;4.30;99.90;;;;;;5008809;28;20401;-85
2021/12/26 12:43:57;;;;;;;21.15;10.13;;;4.40;99.90;;;;;;5011664;28;20113;-85
2021/12/26 12:46:23;;;;;;;18.65;8.70;;;4.40;99.90;;;;;;5015016;28;20040;-84
2021/12/26 12:49:05;;;;;;;20.23;10.13;;;4.40;99.90;;;;;;5018951;28;20033;-84
2021/12/26 12:51:45;;;;;;;17.98;9.60;;;4.40;99.90;;;;;;5016078;28;20490;-84
2021/12/26 12:54:34;;;;;;;19.45;9.70;;;4.40;99.90;;;;;;5013898;28;20385;-84
2021/12/26 12:57:03;;;;;;;18.17;8.80;;;4.50;99.90;;;;;;5011985;28;20136;-85
2021/12/26 12:59:34;;;;;;;17.63;9.40;;;4.50;99.90;;;;;;5032264;28;20041;-84
2021/12/26 13:02:08;;;;;;;17.45;9.27;;;4.50;99.90;;;;;;5011688;28;20064;-84